sensor_id;sensor_type;location;lat;lon;timestamp;P1;durP1;ratioP1;P2;durP2;ratioP2
75044;SDS011;63614;56.026;35.960;2024-01-30T00:01:53;9.73;;;6.47;;
75044;SDS011;63614;56.026;35.960;2024-01-30T00:04:18;12.90;;;6.35;;
75044;SDS011;63614;56.026;35.960;2024-01-30T00:06:45;8.50;;;5.93;;
75044;SDS011;63614;56.026;35.960;2024-01-30T00:09:11;9.98;;;6.10;;
75044;SDS011;63614;56.026;35.960;2024-01-30T00:11:37;12.05;;;6.53;;
75044;SDS011;63614;56.026;35.960;2024-01-30T00:14:03;10.40;;;5.70;;
75044;SDS011;63614;56.026;35.960;2024-01-30T00:16:30;9.50;;;5.95;;
75044;SDS011;63614;56.026;35.960;2024-01-30T00:18:56;12.00;;;7.00;;
75044;SDS011;63614;56.026;35.960;2024-01-30T00:21:22;10.35;;;6.05;;
75044;SDS011;63614;56.026;35.960;2024-01-30T00:23:48;13.30;;;6.13;;
75044;SDS011;63614;56.026;35.960;2024-01-30T00:26:14;11.10;;;6.75;;
75044;SDS011;63614;56.026;35.960;2024-01-30T00:28:41;11.10;;;6.82;;
75044;SDS011;63614;56.026;35.960;2024-01-30T00:31:07;10.80;;;6.72;;
75044;SDS011;63614;56.026;35.960;2024-01-30T00:33:41;9.82;;;6.82;;
75044;SDS011;63614;56.026;35.960;2024-01-30T00:36:07;13.40;;;6.80;;
75044;SDS011;63614;56.026;35.960;2024-01-30T00:38:34;11.60;;;6.93;;
75044;SDS011;63614;56.026;35.960;2024-01-30T00:41:01;11.73;;;7.45;;
75044;SDS011;63614;56.026;35.960;2024-01-30T00:43:30;10.75;;;6.18;;
75044;SDS011;63614;56.026;35.960;2024-01-30T00:45:57;12.05;;;6.82;;
75044;SDS011;63614;56.026;35.960;2024-01-30T00:48:23;11.55;;;6.53;;
75044;SDS011;63614;56.026;35.960;2024-01-30T00:50:49;10.63;;;6.38;;
75044;SDS011;63614;56.026;35.960;2024-01-30T00:53:15;12.00;;;6.90;;
75044;SDS011;63614;56.026;35.960;2024-01-30T00:55:41;11.70;;;6.40;;
75044;SDS011;63614;56.026;35.960;2024-01-30T00:58:07;11.75;;;6.32;;
75044;SDS011;63614;56.026;35.960;2024-01-30T01:00:33;11.00;;;7.03;;
75044;SDS011;63614;56.026;35.960;2024-01-30T01:02:59;9.98;;;6.85;;
75044;SDS011;63614;56.026;35.960;2024-01-30T01:05:25;15.05;;;7.18;;
75044;SDS011;63614;56.026;35.960;2024-01-30T01:07:51;11.30;;;6.32;;
75044;SDS011;63614;56.026;35.960;2024-01-30T01:10:17;10.05;;;6.50;;
75044;SDS011;63614;56.026;35.960;2024-01-30T01:12:44;12.55;;;6.78;;
75044;SDS011;63614;56.026;35.960;2024-01-30T01:15:10;12.55;;;7.00;;
75044;SDS011;63614;56.026;35.960;2024-01-30T01:17:37;12.98;;;6.28;;
75044;SDS011;63614;56.026;35.960;2024-01-30T01:20:04;10.15;;;6.50;;
75044;SDS011;63614;56.026;35.960;2024-01-30T01:22:32;12.45;;;7.00;;
75044;SDS011;63614;56.026;35.960;2024-01-30T01:24:59;11.70;;;7.03;;
75044;SDS011;63614;56.026;35.960;2024-01-30T01:27:30;10.20;;;6.85;;
75044;SDS011;63614;56.026;35.960;2024-01-30T01:29:57;11.18;;;7.03;;
75044;SDS011;63614;56.026;35.960;2024-01-30T01:32:23;12.82;;;7.32;;
75044;SDS011;63614;56.026;35.960;2024-01-30T01:34:49;12.00;;;6.82;;
75044;SDS011;63614;56.026;35.960;2024-01-30T01:37:15;12.52;;;7.50;;
75044;SDS011;63614;56.026;35.960;2024-01-30T01:39:41;10.50;;;6.90;;
75044;SDS011;63614;56.026;35.960;2024-01-30T01:42:07;11.32;;;7.07;;
75044;SDS011;63614;56.026;35.960;2024-01-30T01:44:33;11.80;;;7.43;;
75044;SDS011;63614;56.026;35.960;2024-01-30T01:46:59;11.23;;;6.72;;
75044;SDS011;63614;56.026;35.960;2024-01-30T01:49:25;11.82;;;6.70;;
75044;SDS011;63614;56.026;35.960;2024-01-30T01:51:53;11.90;;;7.05;;
75044;SDS011;63614;56.026;35.960;2024-01-30T01:54:23;11.48;;;6.72;;
75044;SDS011;63614;56.026;35.960;2024-01-30T01:56:51;11.98;;;7.20;;
75044;SDS011;63614;56.026;35.960;2024-01-30T01:59:18;12.20;;;7.18;;
75044;SDS011;63614;56.026;35.960;2024-01-30T02:01:46;14.75;;;7.15;;
75044;SDS011;63614;56.026;35.960;2024-01-30T02:04:15;13.27;;;7.00;;
75044;SDS011;63614;56.026;35.960;2024-01-30T02:06:42;12.33;;;8.17;;
75044;SDS011;63614;56.026;35.960;2024-01-30T02:09:09;11.00;;;7.10;;
75044;SDS011;63614;56.026;35.960;2024-01-30T02:11:35;12.98;;;7.00;;
75044;SDS011;63614;56.026;35.960;2024-01-30T02:14:05;11.27;;;6.57;;
75044;SDS011;63614;56.026;35.960;2024-01-30T02:16:31;10.65;;;7.20;;
75044;SDS011;63614;56.026;35.960;2024-01-30T02:18:57;12.73;;;7.10;;
75044;SDS011;63614;56.026;35.960;2024-01-30T02:21:34;11.52;;;7.03;;
75044;SDS011;63614;56.026;35.960;2024-01-30T02:24:00;12.95;;;6.95;;
75044;SDS011;63614;56.026;35.960;2024-01-30T02:26:28;10.82;;;7.28;;
75044;SDS011;63614;56.026;35.960;2024-01-30T02:28:55;9.80;;;6.25;;
75044;SDS011;63614;56.026;35.960;2024-01-30T02:31:21;10.70;;;6.75;;
75044;SDS011;63614;56.026;35.960;2024-01-30T02:33:46;10.68;;;6.63;;
75044;SDS011;63614;56.026;35.960;2024-01-30T02:36:13;10.52;;;6.80;;
75044;SDS011;63614;56.026;35.960;2024-01-30T02:38:41;13.05;;;7.28;;
75044;SDS011;63614;56.026;35.960;2024-01-30T02:41:07;12.25;;;6.93;;
75044;SDS011;63614;56.026;35.960;2024-01-30T02:43:33;13.50;;;7.07;;
75044;SDS011;63614;56.026;35.960;2024-01-30T02:45:59;11.82;;;7.60;;
75044;SDS011;63614;56.026;35.960;2024-01-30T02:48:26;12.23;;;7.68;;
75044;SDS011;63614;56.026;35.960;2024-01-30T02:50:52;12.35;;;7.32;;
75044;SDS011;63614;56.026;35.960;2024-01-30T02:53:18;11.52;;;6.60;;
75044;SDS011;63614;56.026;35.960;2024-01-30T02:55:44;11.40;;;7.50;;
75044;SDS011;63614;56.026;35.960;2024-01-30T02:58:10;10.82;;;6.75;;
75044;SDS011;63614;56.026;35.960;2024-01-30T03:00:36;10.57;;;6.82;;
75044;SDS011;63614;56.026;35.960;2024-01-30T03:03:02;10.75;;;6.80;;
75044;SDS011;63614;56.026;35.960;2024-01-30T03:05:28;11.23;;;7.07;;
75044;SDS011;63614;56.026;35.960;2024-01-30T03:07:55;12.20;;;7.35;;
75044;SDS011;63614;56.026;35.960;2024-01-30T03:10:21;13.43;;;7.50;;
75044;SDS011;63614;56.026;35.960;2024-01-30T03:12:46;11.30;;;7.40;;
75044;SDS011;63614;56.026;35.960;2024-01-30T03:15:12;15.02;;;7.47;;
75044;SDS011;63614;56.026;35.960;2024-01-30T03:17:38;9.43;;;6.80;;
75044;SDS011;63614;56.026;35.960;2024-01-30T03:20:04;10.40;;;6.82;;
75044;SDS011;63614;56.026;35.960;2024-01-30T03:22:32;10.68;;;7.03;;
75044;SDS011;63614;56.026;35.960;2024-01-30T03:24:58;13.48;;;7.07;;
75044;SDS011;63614;56.026;35.960;2024-01-30T03:27:24;10.93;;;6.80;;
75044;SDS011;63614;56.026;35.960;2024-01-30T03:29:49;11.98;;;7.22;;
75044;SDS011;63614;56.026;35.960;2024-01-30T03:32:15;16.00;;;7.13;;
75044;SDS011;63614;56.026;35.960;2024-01-30T03:34:41;11.95;;;7.20;;
75044;SDS011;63614;56.026;35.960;2024-01-30T03:37:07;12.68;;;6.95;;
75044;SDS011;63614;56.026;35.960;2024-01-30T03:39:33;12.55;;;7.20;;
75044;SDS011;63614;56.026;35.960;2024-01-30T03:41:59;11.13;;;6.45;;
75044;SDS011;63614;56.026;35.960;2024-01-30T03:44:25;9.15;;;6.45;;
75044;SDS011;63614;56.026;35.960;2024-01-30T03:46:51;11.25;;;6.38;;
75044;SDS011;63614;56.026;35.960;2024-01-30T03:49:17;10.50;;;7.05;;
75044;SDS011;63614;56.026;35.960;2024-01-30T03:51:43;12.20;;;7.55;;
75044;SDS011;63614;56.026;35.960;2024-01-30T03:54:08;13.07;;;7.53;;
75044;SDS011;63614;56.026;35.960;2024-01-30T03:56:35;11.80;;;6.72;;
75044;SDS011;63614;56.026;35.960;2024-01-30T03:59:01;10.50;;;7.18;;
75044;SDS011;63614;56.026;35.960;2024-01-30T04:01:28;12.50;;;7.10;;
75044;SDS011;63614;56.026;35.960;2024-01-30T04:03:54;10.52;;;6.78;;
75044;SDS011;63614;56.026;35.960;2024-01-30T04:06:20;12.50;;;7.13;;
75044;SDS011;63614;56.026;35.960;2024-01-30T04:08:46;12.00;;;6.65;;
75044;SDS011;63614;56.026;35.960;2024-01-30T04:11:12;13.77;;;6.82;;
75044;SDS011;63614;56.026;35.960;2024-01-30T04:13:38;14.32;;;8.00;;
75044;SDS011;63614;56.026;35.960;2024-01-30T04:16:04;13.65;;;7.32;;
75044;SDS011;63614;56.026;35.960;2024-01-30T04:18:30;14.38;;;7.30;;
75044;SDS011;63614;56.026;35.960;2024-01-30T04:20:57;11.53;;;7.87;;
75044;SDS011;63614;56.026;35.960;2024-01-30T04:23:23;11.70;;;7.70;;
75044;SDS011;63614;56.026;35.960;2024-01-30T04:25:49;11.05;;;7.22;;
75044;SDS011;63614;56.026;35.960;2024-01-30T04:28:15;14.43;;;7.50;;
75044;SDS011;63614;56.026;35.960;2024-01-30T04:30:41;14.77;;;7.65;;
75044;SDS011;63614;56.026;35.960;2024-01-30T04:33:07;13.57;;;7.80;;
75044;SDS011;63614;56.026;35.960;2024-01-30T04:35:33;16.45;;;8.40;;
75044;SDS011;63614;56.026;35.960;2024-01-30T04:37:59;13.75;;;7.93;;
75044;SDS011;63614;56.026;35.960;2024-01-30T04:40:24;15.10;;;7.60;;
75044;SDS011;63614;56.026;35.960;2024-01-30T04:42:50;15.45;;;8.02;;
75044;SDS011;63614;56.026;35.960;2024-01-30T04:45:16;13.88;;;7.85;;
75044;SDS011;63614;56.026;35.960;2024-01-30T04:47:42;15.55;;;8.55;;
75044;SDS011;63614;56.026;35.960;2024-01-30T04:50:09;15.50;;;9.18;;
75044;SDS011;63614;56.026;35.960;2024-01-30T04:52:35;14.70;;;9.05;;
75044;SDS011;63614;56.026;35.960;2024-01-30T04:55:01;15.38;;;8.95;;
75044;SDS011;63614;56.026;35.960;2024-01-30T04:57:30;17.45;;;8.27;;
75044;SDS011;63614;56.026;35.960;2024-01-30T04:59:59;18.40;;;8.65;;
75044;SDS011;63614;56.026;35.960;2024-01-30T05:02:26;15.75;;;8.07;;
75044;SDS011;63614;56.026;35.960;2024-01-30T05:04:53;18.23;;;9.27;;
75044;SDS011;63614;56.026;35.960;2024-01-30T05:07:19;15.60;;;8.70;;
75044;SDS011;63614;56.026;35.960;2024-01-30T05:09:45;13.43;;;8.02;;
75044;SDS011;63614;56.026;35.960;2024-01-30T05:12:11;14.93;;;8.45;;
75044;SDS011;63614;56.026;35.960;2024-01-30T05:14:37;14.27;;;8.35;;
75044;SDS011;63614;56.026;35.960;2024-01-30T05:17:03;13.55;;;8.00;;
75044;SDS011;63614;56.026;35.960;2024-01-30T05:19:29;16.20;;;8.07;;
75044;SDS011;63614;56.026;35.960;2024-01-30T05:21:55;16.55;;;8.40;;
75044;SDS011;63614;56.026;35.960;2024-01-30T05:24:21;13.63;;;7.93;;
75044;SDS011;63614;56.026;35.960;2024-01-30T05:26:47;17.10;;;9.05;;
75044;SDS011;63614;56.026;35.960;2024-01-30T05:29:14;17.90;;;8.87;;
75044;SDS011;63614;56.026;35.960;2024-01-30T05:31:40;16.38;;;8.70;;
75044;SDS011;63614;56.026;35.960;2024-01-30T05:34:06;14.30;;;8.68;;
75044;SDS011;63614;56.026;35.960;2024-01-30T05:36:32;14.60;;;7.65;;
75044;SDS011;63614;56.026;35.960;2024-01-30T05:38:58;12.45;;;8.15;;
75044;SDS011;63614;56.026;35.960;2024-01-30T05:41:24;14.43;;;8.10;;
75044;SDS011;63614;56.026;35.960;2024-01-30T05:43:50;13.52;;;7.80;;
75044;SDS011;63614;56.026;35.960;2024-01-30T05:46:19;15.70;;;8.52;;
75044;SDS011;63614;56.026;35.960;2024-01-30T05:48:45;13.60;;;8.40;;
75044;SDS011;63614;56.026;35.960;2024-01-30T05:51:11;14.35;;;8.70;;
75044;SDS011;63614;56.026;35.960;2024-01-30T05:53:37;15.55;;;9.10;;
75044;SDS011;63614;56.026;35.960;2024-01-30T05:56:04;14.00;;;8.23;;
75044;SDS011;63614;56.026;35.960;2024-01-30T05:58:30;16.52;;;9.27;;
75044;SDS011;63614;56.026;35.960;2024-01-30T06:00:58;16.63;;;9.13;;
75044;SDS011;63614;56.026;35.960;2024-01-30T06:03:24;18.00;;;8.68;;
75044;SDS011;63614;56.026;35.960;2024-01-30T06:05:50;18.38;;;9.00;;
75044;SDS011;63614;56.026;35.960;2024-01-30T06:08:17;14.93;;;8.40;;
75044;SDS011;63614;56.026;35.960;2024-01-30T06:10:43;14.30;;;9.15;;
75044;SDS011;63614;56.026;35.960;2024-01-30T06:13:09;13.27;;;8.35;;
75044;SDS011;63614;56.026;35.960;2024-01-30T06:15:35;15.73;;;9.27;;
75044;SDS011;63614;56.026;35.960;2024-01-30T06:18:00;16.88;;;8.85;;
75044;SDS011;63614;56.026;35.960;2024-01-30T06:20:26;14.43;;;9.00;;
75044;SDS011;63614;56.026;35.960;2024-01-30T06:22:52;19.45;;;9.77;;
75044;SDS011;63614;56.026;35.960;2024-01-30T06:25:18;18.50;;;9.07;;
75044;SDS011;63614;56.026;35.960;2024-01-30T06:27:44;15.30;;;8.93;;
75044;SDS011;63614;56.026;35.960;2024-01-30T06:30:10;16.80;;;9.02;;
75044;SDS011;63614;56.026;35.960;2024-01-30T06:32:36;18.35;;;9.70;;
75044;SDS011;63614;56.026;35.960;2024-01-30T06:35:02;14.65;;;9.30;;
75044;SDS011;63614;56.026;35.960;2024-01-30T06:37:29;15.38;;;9.70;;
75044;SDS011;63614;56.026;35.960;2024-01-30T06:39:55;18.35;;;8.88;;
75044;SDS011;63614;56.026;35.960;2024-01-30T06:42:21;16.33;;;9.30;;
75044;SDS011;63614;56.026;35.960;2024-01-30T06:44:47;16.27;;;9.85;;
75044;SDS011;63614;56.026;35.960;2024-01-30T06:47:13;17.88;;;9.65;;
75044;SDS011;63614;56.026;35.960;2024-01-30T06:49:39;22.13;;;13.48;;
75044;SDS011;63614;56.026;35.960;2024-01-30T06:52:07;20.00;;;11.10;;
75044;SDS011;63614;56.026;35.960;2024-01-30T06:54:34;22.13;;;12.73;;
75044;SDS011;63614;56.026;35.960;2024-01-30T06:57:00;16.35;;;10.60;;
75044;SDS011;63614;56.026;35.960;2024-01-30T06:59:26;20.23;;;10.55;;
75044;SDS011;63614;56.026;35.960;2024-01-30T07:01:52;22.42;;;11.90;;
75044;SDS011;63614;56.026;35.960;2024-01-30T07:04:18;15.93;;;9.80;;
75044;SDS011;63614;56.026;35.960;2024-01-30T07:06:44;17.85;;;10.30;;
75044;SDS011;63614;56.026;35.960;2024-01-30T07:09:10;22.60;;;10.60;;
75044;SDS011;63614;56.026;35.960;2024-01-30T07:11:36;19.00;;;11.00;;
75044;SDS011;63614;56.026;35.960;2024-01-30T07:14:02;20.17;;;10.90;;
75044;SDS011;63614;56.026;35.960;2024-01-30T07:16:30;18.92;;;10.50;;
75044;SDS011;63614;56.026;35.960;2024-01-30T07:18:56;18.95;;;9.88;;
75044;SDS011;63614;56.026;35.960;2024-01-30T07:21:22;16.85;;;9.68;;
75044;SDS011;63614;56.026;35.960;2024-01-30T07:23:56;22.02;;;11.85;;
75044;SDS011;63614;56.026;35.960;2024-01-30T07:26:22;22.08;;;10.45;;
75044;SDS011;63614;56.026;35.960;2024-01-30T07:28:48;19.52;;;10.70;;
75044;SDS011;63614;56.026;35.960;2024-01-30T07:31:15;16.85;;;9.63;;
75044;SDS011;63614;56.026;35.960;2024-01-30T07:33:41;19.23;;;10.55;;
75044;SDS011;63614;56.026;35.960;2024-01-30T07:36:07;21.25;;;10.27;;
75044;SDS011;63614;56.026;35.960;2024-01-30T07:38:34;20.55;;;10.05;;
75044;SDS011;63614;56.026;35.960;2024-01-30T07:41:00;20.83;;;11.00;;
75044;SDS011;63614;56.026;35.960;2024-01-30T07:43:25;21.33;;;10.70;;
75044;SDS011;63614;56.026;35.960;2024-01-30T07:45:51;20.92;;;10.80;;
75044;SDS011;63614;56.026;35.960;2024-01-30T07:48:17;16.45;;;10.05;;
75044;SDS011;63614;56.026;35.960;2024-01-30T07:50:43;17.60;;;10.30;;
75044;SDS011;63614;56.026;35.960;2024-01-30T07:53:09;17.25;;;10.38;;
75044;SDS011;63614;56.026;35.960;2024-01-30T07:58:18;23.80;;;10.23;;
75044;SDS011;63614;56.026;35.960;2024-01-30T08:00:45;16.77;;;10.52;;
75044;SDS011;63614;56.026;35.960;2024-01-30T08:03:11;16.97;;;10.40;;
75044;SDS011;63614;56.026;35.960;2024-01-30T08:05:38;20.77;;;11.00;;
75044;SDS011;63614;56.026;35.960;2024-01-30T08:08:04;19.17;;;10.55;;
75044;SDS011;63614;56.026;35.960;2024-01-30T08:10:31;20.45;;;10.65;;
75044;SDS011;63614;56.026;35.960;2024-01-30T08:12:56;18.10;;;10.35;;
75044;SDS011;63614;56.026;35.960;2024-01-30T08:15:22;18.33;;;10.50;;
75044;SDS011;63614;56.026;35.960;2024-01-30T08:17:48;23.67;;;12.32;;
75044;SDS011;63614;56.026;35.960;2024-01-30T08:20:14;19.63;;;11.13;;
75044;SDS011;63614;56.026;35.960;2024-01-30T08:22:40;19.00;;;11.25;;
75044;SDS011;63614;56.026;35.960;2024-01-30T08:25:06;22.27;;;10.48;;
75044;SDS011;63614;56.026;35.960;2024-01-30T08:27:33;22.10;;;10.68;;
75044;SDS011;63614;56.026;35.960;2024-01-30T08:30:01;19.95;;;11.02;;
75044;SDS011;63614;56.026;35.960;2024-01-30T08:32:30;19.77;;;11.00;;
75044;SDS011;63614;56.026;35.960;2024-01-30T08:34:55;19.98;;;10.65;;
75044;SDS011;63614;56.026;35.960;2024-01-30T08:37:21;25.70;;;10.98;;
75044;SDS011;63614;56.026;35.960;2024-01-30T08:39:47;22.58;;;10.95;;
75044;SDS011;63614;56.026;35.960;2024-01-30T08:42:13;19.85;;;11.30;;
75044;SDS011;63614;56.026;35.960;2024-01-30T08:44:39;23.27;;;11.52;;
75044;SDS011;63614;56.026;35.960;2024-01-30T08:47:05;19.70;;;10.80;;
75044;SDS011;63614;56.026;35.960;2024-01-30T08:49:31;21.20;;;11.07;;
75044;SDS011;63614;56.026;35.960;2024-01-30T08:51:57;23.30;;;11.80;;
75044;SDS011;63614;56.026;35.960;2024-01-30T08:54:23;23.52;;;11.77;;
75044;SDS011;63614;56.026;35.960;2024-01-30T08:56:49;20.80;;;11.32;;
75044;SDS011;63614;56.026;35.960;2024-01-30T08:59:15;25.55;;;12.18;;
75044;SDS011;63614;56.026;35.960;2024-01-30T09:01:41;19.10;;;11.23;;
75044;SDS011;63614;56.026;35.960;2024-01-30T09:04:06;21.98;;;11.55;;
75044;SDS011;63614;56.026;35.960;2024-01-30T09:06:32;23.48;;;12.45;;
75044;SDS011;63614;56.026;35.960;2024-01-30T09:08:58;21.52;;;12.07;;
75044;SDS011;63614;56.026;35.960;2024-01-30T09:11:24;19.45;;;11.40;;
75044;SDS011;63614;56.026;35.960;2024-01-30T09:13:50;23.75;;;12.55;;
75044;SDS011;63614;56.026;35.960;2024-01-30T09:16:16;22.15;;;12.07;;
75044;SDS011;63614;56.026;35.960;2024-01-30T09:18:42;24.25;;;12.63;;
75044;SDS011;63614;56.026;35.960;2024-01-30T09:21:08;22.63;;;11.95;;
75044;SDS011;63614;56.026;35.960;2024-01-30T09:23:35;24.13;;;12.03;;
75044;SDS011;63614;56.026;35.960;2024-01-30T09:26:01;20.27;;;11.13;;
75044;SDS011;63614;56.026;35.960;2024-01-30T09:28:27;22.00;;;13.02;;
75044;SDS011;63614;56.026;35.960;2024-01-30T09:30:53;24.73;;;12.73;;
75044;SDS011;63614;56.026;35.960;2024-01-30T09:33:18;27.13;;;12.13;;
75044;SDS011;63614;56.026;35.960;2024-01-30T09:35:45;23.42;;;12.57;;
75044;SDS011;63614;56.026;35.960;2024-01-30T09:38:11;27.00;;;12.73;;
75044;SDS011;63614;56.026;35.960;2024-01-30T09:40:37;25.85;;;13.13;;
75044;SDS011;63614;56.026;35.960;2024-01-30T09:43:03;22.92;;;12.73;;
75044;SDS011;63614;56.026;35.960;2024-01-30T09:45:29;28.00;;;12.73;;
75044;SDS011;63614;56.026;35.960;2024-01-30T09:47:58;21.00;;;11.63;;
75044;SDS011;63614;56.026;35.960;2024-01-30T09:50:25;20.35;;;12.25;;
75044;SDS011;63614;56.026;35.960;2024-01-30T09:52:52;22.65;;;11.90;;
75044;SDS011;63614;56.026;35.960;2024-01-30T09:55:20;23.33;;;13.50;;
75044;SDS011;63614;56.026;35.960;2024-01-30T09:57:47;28.48;;;13.73;;
75044;SDS011;63614;56.026;35.960;2024-01-30T10:00:13;27.02;;;12.60;;
75044;SDS011;63614;56.026;35.960;2024-01-30T10:02:40;24.83;;;12.73;;
75044;SDS011;63614;56.026;35.960;2024-01-30T10:05:07;25.15;;;12.70;;
75044;SDS011;63614;56.026;35.960;2024-01-30T10:07:33;24.48;;;13.55;;
75044;SDS011;63614;56.026;35.960;2024-01-30T10:10:00;21.00;;;12.77;;
75044;SDS011;63614;56.026;35.960;2024-01-30T10:12:26;26.40;;;12.95;;
75044;SDS011;63614;56.026;35.960;2024-01-30T10:14:52;27.02;;;12.85;;
75044;SDS011;63614;56.026;35.960;2024-01-30T10:17:19;24.20;;;12.43;;
75044;SDS011;63614;56.026;35.960;2024-01-30T10:19:47;25.42;;;12.18;;
75044;SDS011;63614;56.026;35.960;2024-01-30T10:22:13;22.17;;;12.35;;
75044;SDS011;63614;56.026;35.960;2024-01-30T10:24:39;18.30;;;11.15;;
75044;SDS011;63614;56.026;35.960;2024-01-30T10:27:05;23.85;;;12.07;;
75044;SDS011;63614;56.026;35.960;2024-01-30T10:29:32;28.70;;;12.93;;
75044;SDS011;63614;56.026;35.960;2024-01-30T10:32:02;26.88;;;14.00;;
75044;SDS011;63614;56.026;35.960;2024-01-30T10:34:29;20.60;;;11.35;;
75044;SDS011;63614;56.026;35.960;2024-01-30T10:37:08;24.38;;;12.20;;
75044;SDS011;63614;56.026;35.960;2024-01-30T10:39:42;24.55;;;13.43;;
75044;SDS011;63614;56.026;35.960;2024-01-30T10:42:15;28.20;;;14.70;;
75044;SDS011;63614;56.026;35.960;2024-01-30T10:47:29;25.40;;;12.88;;
75044;SDS011;63614;56.026;35.960;2024-01-30T10:49:56;26.40;;;13.15;;
75044;SDS011;63614;56.026;35.960;2024-01-30T10:52:25;29.55;;;13.65;;
75044;SDS011;63614;56.026;35.960;2024-01-30T10:54:52;25.95;;;12.57;;
75044;SDS011;63614;56.026;35.960;2024-01-30T10:57:19;28.85;;;14.20;;
75044;SDS011;63614;56.026;35.960;2024-01-30T10:59:46;28.25;;;13.57;;
75044;SDS011;63614;56.026;35.960;2024-01-30T11:02:13;29.45;;;14.07;;
75044;SDS011;63614;56.026;35.960;2024-01-30T11:04:43;30.42;;;13.48;;
75044;SDS011;63614;56.026;35.960;2024-01-30T11:07:16;27.27;;;14.75;;
75044;SDS011;63614;56.026;35.960;2024-01-30T11:09:50;22.92;;;13.52;;
75044;SDS011;63614;56.026;35.960;2024-01-30T11:12:16;26.30;;;14.20;;
75044;SDS011;63614;56.026;35.960;2024-01-30T11:14:46;27.23;;;14.68;;
75044;SDS011;63614;56.026;35.960;2024-01-30T11:17:12;27.48;;;14.43;;
75044;SDS011;63614;56.026;35.960;2024-01-30T11:19:41;30.55;;;14.43;;
75044;SDS011;63614;56.026;35.960;2024-01-30T11:22:07;29.60;;;16.15;;
75044;SDS011;63614;56.026;35.960;2024-01-30T11:24:40;35.83;;;16.30;;
75044;SDS011;63614;56.026;35.960;2024-01-30T11:27:10;33.13;;;15.70;;
75044;SDS011;63614;56.026;35.960;2024-01-30T11:29:36;29.42;;;15.10;;
75044;SDS011;63614;56.026;35.960;2024-01-30T11:32:02;26.65;;;14.88;;
75044;SDS011;63614;56.026;35.960;2024-01-30T11:34:28;30.25;;;15.25;;
75044;SDS011;63614;56.026;35.960;2024-01-30T11:37:03;27.05;;;16.45;;
75044;SDS011;63614;56.026;35.960;2024-01-30T11:39:34;29.63;;;16.35;;
75044;SDS011;63614;56.026;35.960;2024-01-30T11:42:02;31.95;;;16.98;;
75044;SDS011;63614;56.026;35.960;2024-01-30T11:44:30;34.80;;;17.05;;
75044;SDS011;63614;56.026;35.960;2024-01-30T11:46:56;27.50;;;16.25;;
75044;SDS011;63614;56.026;35.960;2024-01-30T11:49:22;30.58;;;15.02;;
75044;SDS011;63614;56.026;35.960;2024-01-30T11:51:48;32.40;;;14.73;;
75044;SDS011;63614;56.026;35.960;2024-01-30T11:54:17;28.33;;;15.82;;
75044;SDS011;63614;56.026;35.960;2024-01-30T11:56:43;30.40;;;15.55;;
75044;SDS011;63614;56.026;35.960;2024-01-30T11:59:10;26.58;;;14.20;;
75044;SDS011;63614;56.026;35.960;2024-01-30T12:01:36;31.27;;;14.13;;
75044;SDS011;63614;56.026;35.960;2024-01-30T12:04:02;28.13;;;14.13;;
75044;SDS011;63614;56.026;35.960;2024-01-30T12:06:28;25.80;;;12.80;;
75044;SDS011;63614;56.026;35.960;2024-01-30T12:08:58;25.23;;;14.18;;
75044;SDS011;63614;56.026;35.960;2024-01-30T12:11:25;26.73;;;14.13;;
75044;SDS011;63614;56.026;35.960;2024-01-30T12:13:52;29.15;;;14.10;;
75044;SDS011;63614;56.026;35.960;2024-01-30T12:16:19;26.80;;;14.07;;
75044;SDS011;63614;56.026;35.960;2024-01-30T12:18:45;27.67;;;14.80;;
75044;SDS011;63614;56.026;35.960;2024-01-30T12:21:11;30.50;;;14.18;;
75044;SDS011;63614;56.026;35.960;2024-01-30T12:23:37;23.80;;;13.25;;
75044;SDS011;63614;56.026;35.960;2024-01-30T12:26:03;24.25;;;14.10;;
75044;SDS011;63614;56.026;35.960;2024-01-30T12:28:32;27.73;;;14.15;;
75044;SDS011;63614;56.026;35.960;2024-01-30T12:31:05;25.13;;;13.43;;
75044;SDS011;63614;56.026;35.960;2024-01-30T12:33:31;29.33;;;14.50;;
75044;SDS011;63614;56.026;35.960;2024-01-30T12:35:57;29.55;;;14.63;;
75044;SDS011;63614;56.026;35.960;2024-01-30T12:38:27;28.67;;;14.20;;
75044;SDS011;63614;56.026;35.960;2024-01-30T12:40:56;31.88;;;15.32;;
75044;SDS011;63614;56.026;35.960;2024-01-30T12:43:26;25.33;;;14.13;;
75044;SDS011;63614;56.026;35.960;2024-01-30T12:45:52;27.25;;;14.63;;
75044;SDS011;63614;56.026;35.960;2024-01-30T12:48:18;27.98;;;15.85;;
75044;SDS011;63614;56.026;35.960;2024-01-30T12:50:44;32.58;;;15.88;;
75044;SDS011;63614;56.026;35.960;2024-01-30T12:53:10;27.05;;;15.57;;
75044;SDS011;63614;56.026;35.960;2024-01-30T12:58:03;31.13;;;15.23;;
75044;SDS011;63614;56.026;35.960;2024-01-30T13:00:29;29.83;;;14.98;;
75044;SDS011;63614;56.026;35.960;2024-01-30T13:02:55;31.67;;;15.18;;
75044;SDS011;63614;56.026;35.960;2024-01-30T13:05:21;31.10;;;15.30;;
75044;SDS011;63614;56.026;35.960;2024-01-30T13:07:47;27.10;;;15.63;;
75044;SDS011;63614;56.026;35.960;2024-01-30T13:10:13;30.48;;;15.38;;
75044;SDS011;63614;56.026;35.960;2024-01-30T13:12:39;28.63;;;15.48;;
75044;SDS011;63614;56.026;35.960;2024-01-30T13:15:05;32.03;;;15.07;;
75044;SDS011;63614;56.026;35.960;2024-01-30T13:17:34;33.50;;;15.25;;
75044;SDS011;63614;56.026;35.960;2024-01-30T13:20:00;28.02;;;15.88;;
75044;SDS011;63614;56.026;35.960;2024-01-30T13:22:28;27.45;;;14.88;;
75044;SDS011;63614;56.026;35.960;2024-01-30T13:24:54;29.63;;;15.32;;
75044;SDS011;63614;56.026;35.960;2024-01-30T13:27:20;29.45;;;15.15;;
75044;SDS011;63614;56.026;35.960;2024-01-30T13:29:46;32.08;;;15.13;;
75044;SDS011;63614;56.026;35.960;2024-01-30T13:32:12;30.95;;;15.00;;
75044;SDS011;63614;56.026;35.960;2024-01-30T13:34:38;25.05;;;14.73;;
75044;SDS011;63614;56.026;35.960;2024-01-30T13:39:31;25.25;;;14.75;;
75044;SDS011;63614;56.026;35.960;2024-01-30T13:41:57;50.28;;;28.10;;
75044;SDS011;63614;56.026;35.960;2024-01-30T13:44:23;37.90;;;16.65;;
75044;SDS011;63614;56.026;35.960;2024-01-30T13:46:48;30.20;;;15.20;;
75044;SDS011;63614;56.026;35.960;2024-01-30T13:49:14;26.63;;;14.38;;
75044;SDS011;63614;56.026;35.960;2024-01-30T13:51:40;34.03;;;15.30;;
75044;SDS011;63614;56.026;35.960;2024-01-30T13:54:06;29.55;;;15.20;;
75044;SDS011;63614;56.026;35.960;2024-01-30T13:56:33;32.58;;;16.17;;
75044;SDS011;63614;56.026;35.960;2024-01-30T13:58:59;27.08;;;15.68;;
75044;SDS011;63614;56.026;35.960;2024-01-30T14:01:26;29.98;;;15.07;;
75044;SDS011;63614;56.026;35.960;2024-01-30T14:03:53;29.38;;;14.90;;
75044;SDS011;63614;56.026;35.960;2024-01-30T14:06:19;28.88;;;14.48;;
75044;SDS011;63614;56.026;35.960;2024-01-30T14:08:45;30.38;;;15.88;;
75044;SDS011;63614;56.026;35.960;2024-01-30T14:11:11;30.65;;;15.15;;
75044;SDS011;63614;56.026;35.960;2024-01-30T14:13:36;33.38;;;16.05;;
75044;SDS011;63614;56.026;35.960;2024-01-30T14:16:02;37.45;;;15.15;;
75044;SDS011;63614;56.026;35.960;2024-01-30T14:18:28;24.55;;;15.27;;
75044;SDS011;63614;56.026;35.960;2024-01-30T14:20:54;27.67;;;15.48;;
75044;SDS011;63614;56.026;35.960;2024-01-30T14:23:20;29.13;;;15.57;;